sensor_id;sensor_type;location;lat;lon;timestamp;pressure;altitude;pressure_sealevel;temperature;humidity
78894;BME280;68282;42.698;23.350;2023-06-22T00:01:56;95869.97;;;21.54;58.16
78894;BME280;68282;42.698;23.350;2023-06-22T00:04:21;95865.00;;;21.51;58.55
78894;BME280;68282;42.698;23.350;2023-06-22T00:06:47;95868.91;;;21.50;58.33
78894;BME280;68282;42.698;23.350;2023-06-22T00:09:12;95868.97;;;21.44;58.76
78894;BME280;68282;42.698;23.350;2023-06-22T00:11:38;95856.00;;;21.40;58.62
78894;BME280;68282;42.698;23.350;2023-06-22T00:14:04;95859.09;;;21.38;59.07
78894;BME280;68282;42.698;23.350;2023-06-22T00:16:31;95861.25;;;21.41;59.12
78894;BME280;68282;42.698;23.350;2023-06-22T00:18:57;95858.03;;;21.34;59.32
78894;BME280;68282;42.698;23.350;2023-06-22T00:21:25;95863.25;;;21.36;59.29
78894;BME280;68282;42.698;23.350;2023-06-22T00:23:51;95853.81;;;21.37;59.45
78894;BME280;68282;42.698;23.350;2023-06-22T00:26:17;95850.53;;;21.35;59.30
78894;BME280;68282;42.698;23.350;2023-06-22T00:28:42;95842.53;;;21.33;59.22
78894;BME280;68282;42.698;23.350;2023-06-22T00:31:08;95840.06;;;21.31;59.65
78894;BME280;68282;42.698;23.350;2023-06-22T00:33:33;95834.53;;;21.31;59.51
78894;BME280;68282;42.698;23.350;2023-06-22T00:35:59;95848.38;;;21.31;59.52
78894;BME280;68282;42.698;23.350;2023-06-22T00:38:24;95847.00;;;21.29;59.54
78894;BME280;68282;42.698;23.350;2023-06-22T00:40:49;95839.88;;;21.23;60.11
78894;BME280;68282;42.698;23.350;2023-06-22T00:43:15;95842.34;;;21.24;60.11
78894;BME280;68282;42.698;23.350;2023-06-22T00:45:41;95834.41;;;21.17;59.88
78894;BME280;68282;42.698;23.350;2023-06-22T00:48:07;95839.66;;;21.19;59.88
78894;BME280;68282;42.698;23.350;2023-06-22T00:50:33;95846.06;;;21.14;59.93
78894;BME280;68282;42.698;23.350;2023-06-22T00:53:01;95838.66;;;21.10;60.01
78894;BME280;68282;42.698;23.350;2023-06-22T00:55:32;95841.69;;;21.08;60.27
78894;BME280;68282;42.698;23.350;2023-06-22T00:57:57;95845.31;;;21.09;60.36
78894;BME280;68282;42.698;23.350;2023-06-22T01:00:26;95849.19;;;21.08;60.15
78894;BME280;68282;42.698;23.350;2023-06-22T01:02:52;95853.38;;;21.05;60.44
78894;BME280;68282;42.698;23.350;2023-06-22T01:05:21;95852.53;;;21.05;60.17
78894;BME280;68282;42.698;23.350;2023-06-22T01:10:44;95847.84;;;21.05;60.13
78894;BME280;68282;42.698;23.350;2023-06-22T01:13:35;95846.41;;;21.08;60.20
78894;BME280;68282;42.698;23.350;2023-06-22T01:16:16;95852.22;;;21.06;60.23
78894;BME280;68282;42.698;23.350;2023-06-22T01:18:44;95855.38;;;20.99;60.49
78894;BME280;68282;42.698;23.350;2023-06-22T01:21:21;95860.91;;;20.99;60.49
78894;BME280;68282;42.698;23.350;2023-06-22T01:29:50;95855.63;;;20.98;60.80
78894;BME280;68282;42.698;23.350;2023-06-22T01:32:17;95852.63;;;20.94;60.67
78894;BME280;68282;42.698;23.350;2023-06-22T01:34:43;95861.25;;;20.93;60.40
78894;BME280;68282;42.698;23.350;2023-06-22T01:37:09;95860.16;;;20.89;60.50
78894;BME280;68282;42.698;23.350;2023-06-22T01:39:35;95864.03;;;20.88;60.43
78894;BME280;68282;42.698;23.350;2023-06-22T01:42:02;95870.13;;;20.84;60.45
78894;BME280;68282;42.698;23.350;2023-06-22T01:44:29;95870.44;;;20.83;60.69
78894;BME280;68282;42.698;23.350;2023-06-22T01:46:55;95871.56;;;20.82;60.17
78894;BME280;68282;42.698;23.350;2023-06-22T01:49:21;95877.41;;;20.75;60.13
78894;BME280;68282;42.698;23.350;2023-06-22T01:51:47;95873.56;;;20.71;60.61
78894;BME280;68282;42.698;23.350;2023-06-22T01:54:12;95884.59;;;20.76;60.61
78894;BME280;68282;42.698;23.350;2023-06-22T01:56:38;95879.63;;;20.73;60.39
78894;BME280;68282;42.698;23.350;2023-06-22T01:59:17;95885.19;;;20.68;60.35
78894;BME280;68282;42.698;23.350;2023-06-22T02:01:57;95887.41;;;20.71;60.42
78894;BME280;68282;42.698;23.350;2023-06-22T02:04:32;95893.25;;;20.64;60.30
78894;BME280;68282;42.698;23.350;2023-06-22T02:07:00;95894.06;;;20.65;60.46
78894;BME280;68282;42.698;23.350;2023-06-22T02:09:31;95881.97;;;20.61;60.50
78894;BME280;68282;42.698;23.350;2023-06-22T02:11:58;95891.88;;;20.62;60.72
78894;BME280;68282;42.698;23.350;2023-06-22T02:14:25;95888.88;;;20.58;60.51
78894;BME280;68282;42.698;23.350;2023-06-22T02:16:51;95879.47;;;20.59;60.77
78894;BME280;68282;42.698;23.350;2023-06-22T02:19:22;95874.25;;;20.52;60.52
78894;BME280;68282;42.698;23.350;2023-06-22T02:21:50;95885.06;;;20.54;60.81
78894;BME280;68282;42.698;23.350;2023-06-22T02:24:17;95880.91;;;20.51;60.87
78894;BME280;68282;42.698;23.350;2023-06-22T02:26:43;95887.56;;;20.50;60.37
78894;BME280;68282;42.698;23.350;2023-06-22T02:29:13;95875.47;;;20.41;60.52
78894;BME280;68282;42.698;23.350;2023-06-22T02:31:39;95878.19;;;20.46;60.87
78894;BME280;68282;42.698;23.350;2023-06-22T02:34:04;95865.50;;;20.45;60.78
78894;BME280;68282;42.698;23.350;2023-06-22T02:36:32;95872.69;;;20.41;61.24
78894;BME280;68282;42.698;23.350;2023-06-22T02:38:58;95868.81;;;20.42;61.23
78894;BME280;68282;42.698;23.350;2023-06-22T02:41:27;95879.06;;;20.42;61.29
78894;BME280;68282;42.698;23.350;2023-06-22T02:43:52;95876.84;;;20.44;61.32
78894;BME280;68282;42.698;23.350;2023-06-22T02:46:18;95875.19;;;20.43;60.96
78894;BME280;68282;42.698;23.350;2023-06-22T02:48:43;95879.06;;;20.42;61.04
78894;BME280;68282;42.698;23.350;2023-06-22T02:51:09;95877.72;;;20.39;61.08
78894;BME280;68282;42.698;23.350;2023-06-22T02:53:34;95887.69;;;20.35;61.10
78894;BME280;68282;42.698;23.350;2023-06-22T02:56:01;95885.78;;;20.30;61.34
78894;BME280;68282;42.698;23.350;2023-06-22T02:58:30;95884.66;;;20.31;61.30
78894;BME280;68282;42.698;23.350;2023-06-22T03:00:58;95884.94;;;20.30;61.63
78894;BME280;68282;42.698;23.350;2023-06-22T03:03:29;95893.22;;;20.30;61.35
78894;BME280;68282;42.698;23.350;2023-06-22T03:05:55;95885.78;;;20.30;61.52
78894;BME280;68282;42.698;23.350;2023-06-22T03:08:20;95883.28;;;20.29;61.29
78894;BME280;68282;42.698;23.350;2023-06-22T03:10:48;95891.56;;;20.29;61.22
78894;BME280;68282;42.698;23.350;2023-06-22T03:13:14;95896.31;;;20.23;61.35
78894;BME280;68282;42.698;23.350;2023-06-22T03:15:39;95905.19;;;20.20;61.28
78894;BME280;68282;42.698;23.350;2023-06-22T03:18:05;95912.34;;;20.21;61.51
78894;BME280;68282;42.698;23.350;2023-06-22T03:20:30;95904.94;;;20.16;61.31
78894;BME280;68282;42.698;23.350;2023-06-22T03:22:59;95919.25;;;20.18;61.33
78894;BME280;68282;42.698;23.350;2023-06-22T03:25:24;95920.41;;;20.17;61.35
78894;BME280;68282;42.698;23.350;2023-06-22T03:27:50;95910.47;;;20.16;61.20
78894;BME280;68282;42.698;23.350;2023-06-22T03:30:15;95914.81;;;20.22;61.57
78894;BME280;68282;42.698;23.350;2023-06-22T03:32:44;95916.47;;;20.23;61.52
78894;BME280;68282;42.698;23.350;2023-06-22T03:35:09;95916.78;;;20.22;61.50
78894;BME280;68282;42.698;23.350;2023-06-22T03:37:38;95911.25;;;20.22;61.40
78894;BME280;68282;42.698;23.350;2023-06-22T03:40:04;95922.63;;;20.15;61.37
78894;BME280;68282;42.698;23.350;2023-06-22T03:42:30;95929.81;;;20.11;61.72
78894;BME280;68282;42.698;23.350;2023-06-22T03:44:56;95926.00;;;20.02;62.15
78894;BME280;68282;42.698;23.350;2023-06-22T03:47:22;95923.78;;;19.99;62.44
78894;BME280;68282;42.698;23.350;2023-06-22T03:49:47;95934.28;;;19.97;62.64
78894;BME280;68282;42.698;23.350;2023-06-22T03:52:13;95942.06;;;19.95;62.59
78894;BME280;68282;42.698;23.350;2023-06-22T03:54:38;95936.28;;;19.86;62.52
78894;BME280;68282;42.698;23.350;2023-06-22T03:57:04;95939.88;;;19.81;62.71
78894;BME280;68282;42.698;23.350;2023-06-22T03:59:30;95943.22;;;19.68;63.24
78894;BME280;68282;42.698;23.350;2023-06-22T04:01:56;95944.84;;;19.79;62.89
78894;BME280;68282;42.698;23.350;2023-06-22T04:04:21;95936.56;;;19.84;62.75
78894;BME280;68282;42.698;23.350;2023-06-22T04:06:47;95950.63;;;19.88;62.24
78894;BME280;68282;42.698;23.350;2023-06-22T04:09:12;95948.13;;;19.91;61.53
78894;BME280;68282;42.698;23.350;2023-06-22T04:11:38;95949.25;;;19.90;61.34
78894;BME280;68282;42.698;23.350;2023-06-22T04:14:03;95931.56;;;19.91;61.54
78894;BME280;68282;42.698;23.350;2023-06-22T04:16:29;95926.00;;;19.97;61.60
78894;BME280;68282;42.698;23.350;2023-06-22T04:18:54;95928.72;;;20.07;61.91
78894;BME280;68282;42.698;23.350;2023-06-22T04:21:19;95918.25;;;20.04;61.35
78894;BME280;68282;42.698;23.350;2023-06-22T04:23:46;95917.66;;;20.07;60.98
78894;BME280;68282;42.698;23.350;2023-06-22T04:26:12;95908.81;;;20.10;61.30
78894;BME280;68282;42.698;23.350;2023-06-22T04:28:37;95906.91;;;20.05;61.28
78894;BME280;68282;42.698;23.350;2023-06-22T04:31:03;95911.56;;;20.15;61.30
78894;BME280;68282;42.698;23.350;2023-06-22T04:33:30;95905.19;;;20.20;61.18
78894;BME280;68282;42.698;23.350;2023-06-22T04:35:55;95919.25;;;20.23;61.15
78894;BME280;68282;42.698;23.350;2023-06-22T04:38:26;95918.94;;;20.25;61.52
78894;BME280;68282;42.698;23.350;2023-06-22T04:40:51;95916.19;;;20.25;61.77
78894;BME280;68282;42.698;23.350;2023-06-22T04:43:18;95914.50;;;20.29;61.83
78894;BME280;68282;42.698;23.350;2023-06-22T04:45:44;95916.72;;;20.27;61.50
78894;BME280;68282;42.698;23.350;2023-06-22T04:48:10;95906.75;;;20.31;61.51
78894;BME280;68282;42.698;23.350;2023-06-22T04:50:41;95917.53;;;20.33;61.44
78894;BME280;68282;42.698;23.350;2023-06-22T04:53:06;95928.00;;;20.36;61.38
78894;BME280;68282;42.698;23.350;2023-06-22T04:55:32;95929.34;;;20.38;61.19
78894;BME280;68282;42.698;23.350;2023-06-22T04:57:58;95940.09;;;20.45;61.14
78894;BME280;68282;42.698;23.350;2023-06-22T05:00:30;95940.91;;;20.46;60.91
78894;BME280;68282;42.698;23.350;2023-06-22T05:02:57;95930.16;;;20.44;61.26
78894;BME280;68282;42.698;23.350;2023-06-22T05:05:23;95934.00;;;20.48;61.19
78894;BME280;68282;42.698;23.350;2023-06-22T05:07:51;95933.69;;;20.50;61.00
78894;BME280;68282;42.698;23.350;2023-06-22T05:10:19;95925.97;;;20.52;60.70
78894;BME280;68282;42.698;23.350;2023-06-22T05:12:46;95928.41;;;20.53;60.30
78894;BME280;68282;42.698;23.350;2023-06-22T05:15:11;95923.97;;;20.58;59.96
78894;BME280;68282;42.698;23.350;2023-06-22T05:17:37;95926.19;;;20.61;60.30
78894;BME280;68282;42.698;23.350;2023-06-22T05:20:09;95930.28;;;20.63;60.16
78894;BME280;68282;42.698;23.350;2023-06-22T05:22:34;95936.06;;;20.67;60.04
78894;BME280;68282;42.698;23.350;2023-06-22T05:25:00;95937.75;;;20.63;60.45
78894;BME280;68282;42.698;23.350;2023-06-22T05:27:25;95934.47;;;20.61;60.48
78894;BME280;68282;42.698;23.350;2023-06-22T05:29:51;95938.25;;;20.70;59.49
78894;BME280;68282;42.698;23.350;2023-06-22T05:32:16;95942.09;;;20.74;59.76
78894;BME280;68282;42.698;23.350;2023-06-22T05:34:42;95944.03;;;20.74;59.85
78894;BME280;68282;42.698;23.350;2023-06-22T05:37:07;95937.66;;;20.78;59.60
78894;BME280;68282;42.698;23.350;2023-06-22T05:39:34;95946.16;;;20.87;59.60
78894;BME280;68282;42.698;23.350;2023-06-22T05:42:04;95947.81;;;20.88;60.20
78894;BME280;68282;42.698;23.350;2023-06-22T05:44:30;95950.28;;;20.90;59.94
78894;BME280;68282;42.698;23.350;2023-06-22T05:46:55;95965.38;;;21.03;59.74
78894;BME280;68282;42.698;23.350;2023-06-22T05:49:21;95965.91;;;21.05;59.63
78894;BME280;68282;42.698;23.350;2023-06-22T05:51:47;95960.09;;;21.06;59.46
78894;BME280;68282;42.698;23.350;2023-06-22T05:54:13;95955.41;;;21.07;59.62
78894;BME280;68282;42.698;23.350;2023-06-22T05:56:43;95959.47;;;21.14;59.69
78894;BME280;68282;42.698;23.350;2023-06-22T05:59:09;95956.19;;;21.12;59.56
78894;BME280;68282;42.698;23.350;2023-06-22T06:01:34;95949.00;;;21.11;58.79
78894;BME280;68282;42.698;23.350;2023-06-22T06:04:01;95949.78;;;21.17;58.04
78894;BME280;68282;42.698;23.350;2023-06-22T06:06:27;95944.25;;;21.17;58.27
78894;BME280;68282;42.698;23.350;2023-06-22T06:08:54;95942.00;;;21.19;58.61
78894;BME280;68282;42.698;23.350;2023-06-22T06:11:19;95941.66;;;21.26;58.67
78894;BME280;68282;42.698;23.350;2023-06-22T06:13:45;95933.06;;;21.27;58.17
78894;BME280;68282;42.698;23.350;2023-06-22T06:16:10;95939.59;;;21.37;58.13
78894;BME280;68282;42.698;23.350;2023-06-22T06:18:36;95937.72;;;21.32;57.76
78894;BME280;68282;42.698;23.350;2023-06-22T06:21:02;95939.59;;;21.37;57.95
78894;BME280;68282;42.698;23.350;2023-06-22T06:23:28;95932.38;;;21.41;57.06
78894;BME280;68282;42.698;23.350;2023-06-22T06:25:53;95935.97;;;21.41;57.88
78894;BME280;68282;42.698;23.350;2023-06-22T06:28:19;95931.53;;;21.40;57.64
78894;BME280;68282;42.698;23.350;2023-06-22T06:30:44;95929.25;;;21.47;57.85
78894;BME280;68282;42.698;23.350;2023-06-22T06:33:12;95930.03;;;21.53;57.83
78894;BME280;68282;42.698;23.350;2023-06-22T06:35:38;95929.72;;;21.60;57.80
78894;BME280;68282;42.698;23.350;2023-06-22T06:38:06;95929.34;;;21.67;58.39
78894;BME280;68282;42.698;23.350;2023-06-22T06:40:34;95923.22;;;21.70;57.62
78894;BME280;68282;42.698;23.350;2023-06-22T06:42:59;95918.44;;;21.75;57.53
78894;BME280;68282;42.698;23.350;2023-06-22T06:45:25;95916.66;;;21.85;58.26
78894;BME280;68282;42.698;23.350;2023-06-22T06:47:52;95909.94;;;21.91;58.56
78894;BME280;68282;42.698;23.350;2023-06-22T06:50:18;95925.50;;;21.87;57.54
78894;BME280;68282;42.698;23.350;2023-06-22T06:52:44;95914.00;;;21.99;57.42
78894;BME280;68282;42.698;23.350;2023-06-22T06:55:10;95897.97;;;21.96;57.27
78894;BME280;68282;42.698;23.350;2023-06-22T06:57:37;95908.06;;;22.05;57.01
78894;BME280;68282;42.698;23.350;2023-06-22T07:00:07;95906.16;;;22.06;57.55
78894;BME280;68282;42.698;23.350;2023-06-22T07:02:38;95910.47;;;22.12;57.37
78894;BME280;68282;42.698;23.350;2023-06-22T07:05:05;95906.81;;;22.17;57.30
78894;BME280;68282;42.698;23.350;2023-06-22T07:07:31;95907.34;;;22.19;57.30
78894;BME280;68282;42.698;23.350;2023-06-22T07:09:56;95909.00;;;22.20;57.33
78894;BME280;68282;42.698;23.350;2023-06-22T07:12:22;95913.03;;;22.28;57.12
78894;BME280;68282;42.698;23.350;2023-06-22T07:14:48;95905.47;;;22.33;56.73
78894;BME280;68282;42.698;23.350;2023-06-22T07:17:13;95907.66;;;22.36;56.72
78894;BME280;68282;42.698;23.350;2023-06-22T07:19:39;95908.66;;;22.46;56.75
78894;BME280;68282;42.698;23.350;2023-06-22T07:22:05;95909.19;;;22.48;56.10
78894;BME280;68282;42.698;23.350;2023-06-22T07:24:31;95906.84;;;22.55;56.21
78894;BME280;68282;42.698;23.350;2023-06-22T07:26:57;95905.63;;;22.61;56.99
78894;BME280;68282;42.698;23.350;2023-06-22T07:29:24;95908.31;;;22.66;56.79
78894;BME280;68282;42.698;23.350;2023-06-22T07:31:50;95912.53;;;22.64;56.55
78894;BME280;68282;42.698;23.350;2023-06-22T07:34:17;95902.03;;;22.61;55.78
78894;BME280;68282;42.698;23.350;2023-06-22T07:36:43;95909.81;;;22.59;55.68
78894;BME280;68282;42.698;23.350;2023-06-22T07:39:09;95913.56;;;22.68;56.03
78894;BME280;68282;42.698;23.350;2023-06-22T07:41:34;95907.34;;;22.76;56.48
78894;BME280;68282;42.698;23.350;2023-06-22T07:44:00;95906.03;;;22.88;57.23
78894;BME280;68282;42.698;23.350;2023-06-22T07:46:25;95905.72;;;22.89;56.20
78894;BME280;68282;42.698;23.350;2023-06-22T07:48:51;95907.00;;;22.97;56.24
78894;BME280;68282;42.698;23.350;2023-06-22T07:51:17;95903.00;;;23.03;55.61
78894;BME280;68282;42.698;23.350;2023-06-22T07:53:43;95906.19;;;23.10;54.88
78894;BME280;68282;42.698;23.350;2023-06-22T07:56:11;95899.06;;;23.23;54.23
78894;BME280;68282;42.698;23.350;2023-06-22T07:58:37;95903.97;;;23.26;55.26
78894;BME280;68282;42.698;23.350;2023-06-22T08:01:02;95895.25;;;23.33;55.86
78894;BME280;68282;42.698;23.350;2023-06-22T08:03:28;95890.75;;;23.37;54.65
78894;BME280;68282;42.698;23.350;2023-06-22T08:05:54;95891.16;;;23.44;55.48
78894;BME280;68282;42.698;23.350;2023-06-22T08:08:20;95890.44;;;23.39;54.87
78894;BME280;68282;42.698;23.350;2023-06-22T08:10:46;95882.22;;;23.47;56.13
78894;BME280;68282;42.698;23.350;2023-06-22T08:13:11;95880.69;;;23.55;55.42
78894;BME280;68282;42.698;23.350;2023-06-22T08:15:37;95873.88;;;23.61;55.45
78894;BME280;68282;42.698;23.350;2023-06-22T08:18:02;95873.06;;;23.61;55.12
78894;BME280;68282;42.698;23.350;2023-06-22T08:20:28;95878.94;;;23.73;54.32
78894;BME280;68282;42.698;23.350;2023-06-22T08:22:55;95866.94;;;23.87;54.69
78894;BME280;68282;42.698;23.350;2023-06-22T08:25:20;95872.34;;;23.97;55.17
78894;BME280;68282;42.698;23.350;2023-06-22T08:27:47;95870.38;;;23.98;54.67
78894;BME280;68282;42.698;23.350;2023-06-22T08:30:13;95859.66;;;24.05;55.10
78894;BME280;68282;42.698;23.350;2023-06-22T08:32:39;95859.22;;;24.12;52.67
78894;BME280;68282;42.698;23.350;2023-06-22T08:35:05;95864.97;;;24.15;53.45
78894;BME280;68282;42.698;23.350;2023-06-22T08:37:33;95864.97;;;24.15;53.22
78894;BME280;68282;42.698;23.350;2023-06-22T08:40:02;95866.00;;;24.19;52.22
78894;BME280;68282;42.698;23.350;2023-06-22T08:42:31;95866.50;;;24.21;52.79
78894;BME280;68282;42.698;23.350;2023-06-22T08:44:56;95872.59;;;24.23;52.34
78894;BME280;68282;42.698;23.350;2023-06-22T08:47:22;95875.56;;;24.27;53.02
78894;BME280;68282;42.698;23.350;2023-06-22T08:49:48;95869.06;;;24.32;54.01
78894;BME280;68282;42.698;23.350;2023-06-22T08:52:14;95870.09;;;24.36;53.77
78894;BME280;68282;42.698;23.350;2023-06-22T08:54:39;95861.59;;;24.41;53.46
78894;BME280;68282;42.698;23.350;2023-06-22T08:57:05;95852.03;;;24.47;53.65
78894;BME280;68282;42.698;23.350;2023-06-22T08:59:31;95852.69;;;24.53;53.88
78894;BME280;68282;42.698;23.350;2023-06-22T09:01:56;95850.59;;;24.59;53.63
78894;BME280;68282;42.698;23.350;2023-06-22T09:04:22;95843.59;;;24.61;53.47
78894;BME280;68282;42.698;23.350;2023-06-22T09:06:48;95851.22;;;24.69;53.34
78894;BME280;68282;42.698;23.350;2023-06-22T09:09:16;95845.84;;;24.73;53.26
78894;BME280;68282;42.698;23.350;2023-06-22T09:11:41;95842.16;;;24.87;52.07
78894;BME280;68282;42.698;23.350;2023-06-22T09:14:08;95843.03;;;24.96;51.65
78894;BME280;68282;42.698;23.350;2023-06-22T09:16:33;95839.28;;;25.00;51.63
78894;BME280;68282;42.698;23.350;2023-06-22T09:18:59;95841.09;;;25.05;50.64
78894;BME280;68282;42.698;23.350;2023-06-22T09:21:24;95837.06;;;25.11;51.52
78894;BME280;68282;42.698;23.350;2023-06-22T09:23:50;95839.69;;;25.16;51.29
78894;BME280;68282;42.698;23.350;2023-06-22T09:26:20;95845.13;;;25.22;52.61
78894;BME280;68282;42.698;23.350;2023-06-22T09:28:45;95836.63;;;25.27;51.75
78894;BME280;68282;42.698;23.350;2023-06-22T09:31:11;95845.97;;;25.31;50.88
78894;BME280;68282;42.698;23.350;2023-06-22T09:33:36;95843.19;;;25.31;51.51
78894;BME280;68282;42.698;23.350;2023-06-22T09:36:07;95845.81;;;25.36;51.37
78894;BME280;68282;42.698;23.350;2023-06-22T09:38:36;95844.09;;;25.40;49.55
78894;BME280;68282;42.698;23.350;2023-06-22T09:41:02;95848.69;;;25.45;49.33
78894;BME280;68282;42.698;23.350;2023-06-22T09:43:27;95848.09;;;25.57;47.29
78894;BME280;68282;42.698;23.350;2023-06-22T09:45:53;95846.75;;;25.54;45.93
78894;BME280;68282;42.698;23.350;2023-06-22T09:48:18;95842.34;;;25.62;48.67
78894;BME280;68282;42.698;23.350;2023-06-22T09:50:44;95830.09;;;25.72;47.59
78894;BME280;68282;42.698;23.350;2023-06-22T09:53:09;95832.41;;;25.78;47.63
78894;BME280;68282;42.698;23.350;2023-06-22T09:55:35;95827.50;;;25.84;48.24
78894;BME280;68282;42.698;23.350;2023-06-22T09:58:00;95818.97;;;25.89;47.98
78894;BME280;68282;42.698;23.350;2023-06-22T10:00:26;95822.59;;;25.99;46.36
78894;BME280;68282;42.698;23.350;2023-06-22T10:02:52;95824.25;;;26.08;46.99
78894;BME280;68282;42.698;23.350;2023-06-22T10:05:17;95814.44;;;26.20;48.61
78894;BME280;68282;42.698;23.350;2023-06-22T10:07:43;95809.19;;;26.27;47.76
78894;BME280;68282;42.698;23.350;2023-06-22T10:10:12;95813.28;;;26.38;48.08
78894;BME280;68282;42.698;23.350;2023-06-22T10:12:46;95811.47;;;26.51;46.47
78894;BME280;68282;42.698;23.350;2023-06-22T10:15:12;95814.91;;;26.57;45.86
78894;BME280;68282;42.698;23.350;2023-06-22T10:17:38;95809.31;;;26.57;45.71
78894;BME280;68282;42.698;23.350;2023-06-22T10:20:05;95808.03;;;26.63;45.50
78894;BME280;68282;42.698;23.350;2023-06-22T10:22:44;95806.03;;;26.73;45.43
78894;BME280;68282;42.698;23.350;2023-06-22T10:25:10;95802.56;;;26.76;44.48
78894;BME280;68282;42.698;23.350;2023-06-22T10:27:36;95804.22;;;26.85;44.90
78894;BME280;68282;42.698;23.350;2023-06-22T10:30:08;95801.25;;;26.91;44.57
78894;BME280;68282;42.698;23.350;2023-06-22T10:32:34;95799.59;;;26.98;46.97
78894;BME280;68282;42.698;23.350;2023-06-22T10:35:00;95796.72;;;27.16;42.09
78894;BME280;68282;42.698;23.350;2023-06-22T10:37:25;95802.47;;;27.20;41.76
78894;BME280;68282;42.698;23.350;2023-06-22T10:39:51;95789.13;;;27.25;41.02
78894;BME280;68282;42.698;23.350;2023-06-22T10:42:16;95791.28;;;27.20;42.74
78894;BME280;68282;42.698;23.350;2023-06-22T10:44:42;95787.81;;;27.31;42.36
78894;BME280;68282;42.698;23.350;2023-06-22T10:47:09;95793.25;;;27.28;42.45
78894;BME280;68282;42.698;23.350;2023-06-22T10:49:38;95790.91;;;27.30;43.37
78894;BME280;68282;42.698;23.350;2023-06-22T10:52:08;95782.00;;;27.37;43.37
78894;BME280;68282;42.698;23.350;2023-06-22T10:54:35;95787.22;;;27.56;41.62
78894;BME280;68282;42.698;23.350;2023-06-22T10:57:01;95785.31;;;27.69;42.62
78894;BME280;68282;42.698;23.350;2023-06-22T10:59:27;95780.16;;;27.80;41.71
78894;BME280;68282;42.698;23.350;2023-06-22T11:01:54;95786.84;;;27.87;42.18
78894;BME280;68282;42.698;23.350;2023-06-22T11:04:20;95776.44;;;27.97;40.79
78894;BME280;68282;42.698;23.350;2023-06-22T11:06:45;95786.59;;;28.01;41.63
78894;BME280;68282;42.698;23.350;2023-06-22T11:09:11;95772.56;;;28.10;40.54
78894;BME280;68282;42.698;23.350;2023-06-22T11:11:39;95777.47;;;28.13;39.51
78894;BME280;68282;42.698;23.350;2023-06-22T11:14:04;95767.38;;;28.21;39.82
78894;BME280;68282;42.698;23.350;2023-06-22T11:16:30;95766.09;;;28.18;40.47
78894;BME280;68282;42.698;23.350;2023-06-22T11:18:55;95776.78;;;28.16;40.60
78894;BME280;68282;42.698;23.350;2023-06-22T11:21:21;95763.91;;;28.24;41.04
78894;BME280;68282;42.698;23.350;2023-06-22T11:23:46;95765.91;;;28.36;42.30
78894;BME280;68282;42.698;23.350;2023-06-22T11:26:11;95761.06;;;28.45;40.28
78894;BME280;68282;42.698;23.350;2023-06-22T11:28:37;95762.63;;;28.55;39.46
78894;BME280;68282;42.698;23.350;2023-06-22T11:31:03;95763.03;;;28.66;38.29
78894;BME280;68282;42.698;23.350;2023-06-22T11:33:28;95751.56;;;28.59;39.05
78894;BME280;68282;42.698;23.350;2023-06-22T11:35:54;95759.91;;;28.46;39.83
78894;BME280;68282;42.698;23.350;2023-06-22T11:38:21;95757.88;;;28.34;41.31
78894;BME280;68282;42.698;23.350;2023-06-22T11:40:47;95756.88;;;28.18;40.19
78894;BME280;68282;42.698;23.350;2023-06-22T11:43:12;95755.47;;;28.03;39.99
78894;BME280;68282;42.698;23.350;2023-06-22T11:45:40;95756.59;;;28.11;40.80
78894;BME280;68282;42.698;23.350;2023-06-22T11:48:05;95753.03;;;28.22;40.62
78894;BME280;68282;42.698;23.350;2023-06-22T11:50:31;95739.94;;;28.35;40.22
78894;BME280;68282;42.698;23.350;2023-06-22T11:53:01;95737.06;;;28.44;40.90
78894;BME280;68282;42.698;23.350;2023-06-22T11:55:26;95734.28;;;28.57;40.44
78894;BME280;68282;42.698;23.350;2023-06-22T11:57:56;95741.63;;;28.61;39.82
78894;BME280;68282;42.698;23.350;2023-06-22T12:00:24;95739.88;;;28.44;39.85
78894;BME280;68282;42.698;23.350;2023-06-22T12:02:50;95745.19;;;28.37;41.92
78894;BME280;68282;42.698;23.350;2023-06-22T12:05:19;95746.28;;;28.23;41.52
78894;BME280;68282;42.698;23.350;2023-06-22T12:07:45;95742.97;;;28.09;42.56
78894;BME280;68282;42.698;23.350;2023-06-22T12:10:11;95734.81;;;27.95;43.54
78894;BME280;68282;42.698;23.350;2023-06-22T12:12:36;95743.97;;;27.83;42.14
78894;BME280;68282;42.698;23.350;2023-06-22T12:15:02;95753.78;;;27.68;40.09
78894;BME280;68282;42.698;23.350;2023-06-22T12:17:45;95758.47;;;27.55;42.63
78894;BME280;68282;42.698;23.350;2023-06-22T12:20:13;95760.16;;;27.39;41.64
78894;BME280;68282;42.698;23.350;2023-06-22T12:22:38;95761.22;;;27.25;44.76
78894;BME280;68282;42.698;23.350;2023-06-22T12:25:04;95780.97;;;27.20;46.29
78894;BME280;68282;42.698;23.350;2023-06-22T12:27:30;95788.56;;;27.11;45.50
78894;BME280;68282;42.698;23.350;2023-06-22T12:29:56;95781.22;;;26.97;44.81
78894;BME280;68282;42.698;23.350;2023-06-22T12:32:21;95791.38;;;26.93;45.53
78894;BME280;68282;42.698;23.350;2023-06-22T12:34:47;95802.59;;;26.67;47.21
78894;BME280;68282;42.698;23.350;2023-06-22T12:37:12;95805.38;;;26.58;48.10
78894;BME280;68282;42.698;23.350;2023-06-22T12:39:40;95801.78;;;26.49;50.04
78894;BME280;68282;42.698;23.350;2023-06-22T12:42:06;95805.75;;;26.30;51.38
78894;BME280;68282;42.698;23.350;2023-06-22T12:44:34;95793.44;;;26.05;52.42
78894;BME280;68282;42.698;23.350;2023-06-22T12:46:59;95795.38;;;25.87;53.13
78894;BME280;68282;42.698;23.350;2023-06-22T12:49:25;95811.25;;;25.77;51.90
78894;BME280;68282;42.698;23.350;2023-06-22T12:51:50;95818.13;;;25.71;52.21
78894;BME280;68282;42.698;23.350;2023-06-22T12:54:16;95823.06;;;25.74;51.94
78894;BME280;68282;42.698;23.350;2023-06-22T12:56:41;95834.84;;;25.71;51.92